createdAt,value
2022-08-23T00:04:10.258Z,22.60
2022-08-23T00:09:16.559Z,22.53
2022-08-23T00:14:22.195Z,22.45
2022-08-23T00:19:25.875Z,22.46
2022-08-23T00:24:30.309Z,22.45
2022-08-23T00:29:34.595Z,22.47
2022-08-23T00:34:38.286Z,22.44
2022-08-23T00:39:43.107Z,22.41
2022-08-23T00:45:03.443Z,22.40
2022-08-23T00:50:23.933Z,22.39
2022-08-23T00:55:29.527Z,22.33
2022-08-23T01:00:33.599Z,22.34
2022-08-23T01:05:39.598Z,22.35
2022-08-23T01:10:47.518Z,22.34
2022-08-23T01:15:53.887Z,22.24
2022-08-23T01:20:59.181Z,21.99
2022-08-23T01:26:04.987Z,21.82
2022-08-23T01:31:08.439Z,21.61
2022-08-23T01:36:12.835Z,21.26
2022-08-23T01:41:17.339Z,21.30
2022-08-23T01:46:21.454Z,21.20
2022-08-23T01:51:24.997Z,21.13
2022-08-23T01:56:39.302Z,21.14
2022-08-23T02:01:42.423Z,21.23
2022-08-23T02:06:45.437Z,21.34
2022-08-23T02:11:49.910Z,21.28
2022-08-23T02:17:02.791Z,21.32
2022-08-23T02:22:08.325Z,21.37
2022-08-23T02:27:14.795Z,21.33
2022-08-23T02:32:19.671Z,21.30
2022-08-23T02:37:22.621Z,21.31
2022-08-23T02:42:26.958Z,21.37
2022-08-23T02:47:30.310Z,21.40
2022-08-23T02:52:33.664Z,21.38
2022-08-23T02:57:40.134Z,21.40
2022-08-23T03:02:43.998Z,21.38
2022-08-23T03:07:47.345Z,21.39
2022-08-23T03:12:51.741Z,21.25
2022-08-23T03:17:55.002Z,21.33
2022-08-23T03:22:57.997Z,21.34
2022-08-23T03:28:04.749Z,21.37
2022-08-23T03:33:07.665Z,21.31
2022-08-23T03:38:11.166Z,21.32
2022-08-23T03:43:15.728Z,21.26
2022-08-23T03:48:19.320Z,21.33
2022-08-23T03:53:24.190Z,21.38
2022-08-23T03:58:29.557Z,21.39
2022-08-23T04:03:32.484Z,21.28
2022-08-23T04:08:35.402Z,21.34
2022-08-23T04:13:40.194Z,21.40
2022-08-23T04:18:43.154Z,21.38
2022-08-23T04:23:46.124Z,21.39
2022-08-23T04:28:50.386Z,21.37
2022-08-23T04:33:53.533Z,21.34
2022-08-23T04:38:56.478Z,21.34
2022-08-23T04:44:00.895Z,21.34
2022-08-23T04:49:04.103Z,21.39
2022-08-23T04:54:07.899Z,21.40
2022-08-23T04:59:13.192Z,21.40
2022-08-23T05:04:16.459Z,21.34
2022-08-23T05:09:20.793Z,21.21
2022-08-23T05:14:25.504Z,21.25
2022-08-23T05:19:28.520Z,21.19
2022-08-23T05:24:31.619Z,21.19
2022-08-23T05:29:35.986Z,21.24
2022-08-23T05:34:39.246Z,21.30
2022-08-23T05:39:43.059Z,21.34
2022-08-23T05:44:47.528Z,21.41
2022-08-23T05:49:50.531Z,21.44
2022-08-23T05:54:53.519Z,21.48
2022-08-23T05:59:57.843Z,21.46
2022-08-23T06:05:00.859Z,21.54
2022-08-23T06:10:04.254Z,21.57
2022-08-23T06:15:09.243Z,21.57
2022-08-23T06:20:12.259Z,21.63
2022-08-23T06:25:15.278Z,21.67
2022-08-23T06:30:20.027Z,21.74
2022-08-23T06:35:39.369Z,21.87
2022-08-23T06:40:43.765Z,21.93
2022-08-23T06:45:50.149Z,21.98
2022-08-23T06:50:57.998Z,22.05
2022-08-23T06:56:01.162Z,22.15
2022-08-23T07:01:34.989Z,22.26
2022-08-23T07:06:35.451Z,22.37
2022-08-23T07:11:39.499Z,22.44
2022-08-23T07:16:45.451Z,22.49
2022-08-23T07:21:49.028Z,22.57
2022-08-23T07:26:53.129Z,22.68
2022-08-23T07:31:58.043Z,22.73
2022-08-23T07:37:01.602Z,22.83
2022-08-23T07:42:23.117Z,22.97
2022-08-23T07:47:29.828Z,23.14
2022-08-23T07:52:33.382Z,23.29
2022-08-23T07:57:36.354Z,23.44
2022-08-23T08:02:40.795Z,23.57
2022-08-23T08:07:43.870Z,23.69
2022-08-23T08:12:46.958Z,23.74
2022-08-23T08:17:51.595Z,23.78
2022-08-23T08:22:58.364Z,23.91
2022-08-23T08:28:03.340Z,23.96
2022-08-23T08:33:08.075Z,24.02
2022-08-23T08:38:11.118Z,24.13
2022-08-23T08:43:22.618Z,24.22
2022-08-23T08:48:29.734Z,24.28
2022-08-23T08:53:35.744Z,24.39
2022-08-23T08:58:43.159Z,24.51
2022-08-23T09:03:48.484Z,24.67
2022-08-23T09:09:04.784Z,24.91
2022-08-23T09:14:17.728Z,25.04
2022-08-23T09:19:23.268Z,25.17
2022-08-23T09:24:26.718Z,25.38
2022-08-23T09:29:31.078Z,25.49
2022-08-23T09:34:43.350Z,25.65
2022-08-23T09:39:47.606Z,25.95
2022-08-23T09:44:50.904Z,26.30
2022-08-23T09:49:55.794Z,26.40
2022-08-23T09:55:00.925Z,26.50
2022-08-23T10:00:19.388Z,26.42
2022-08-23T10:05:31.361Z,26.55
2022-08-23T10:10:37.690Z,26.67
2022-08-23T10:15:49.382Z,26.71
2022-08-23T10:21:01.728Z,26.68
2022-08-23T10:26:06.823Z,26.91
2022-08-23T10:31:15.587Z,27.18
2022-08-23T10:36:24.487Z,27.59
2022-08-23T10:41:45.849Z,27.82
2022-08-23T10:46:54.010Z,28.28
2022-08-23T10:51:59.342Z,28.35
2022-08-23T10:57:03.240Z,28.77
2022-08-23T11:02:15.771Z,29.28
2022-08-23T11:07:21.632Z,29.33
2022-08-23T11:12:34.048Z,29.21
2022-08-23T11:17:42.761Z,29.72
2022-08-23T11:23:16.029Z,30.25
2022-08-23T11:28:39.612Z,30.75
2022-08-23T11:33:45.505Z,31.34
2022-08-23T11:39:06.197Z,30.93
2022-08-23T11:44:24.097Z,30.78
2022-08-23T11:49:36.330Z,30.74
2022-08-23T11:54:46.155Z,31.31
2022-08-23T12:00:01.937Z,32.16
2022-08-23T12:05:08.893Z,33.09
2022-08-23T12:10:11.993Z,32.84
2022-08-23T12:15:17.857Z,31.53
2022-08-23T12:20:25.977Z,31.97
2022-08-23T12:25:30.957Z,32.38
2022-08-23T12:30:42.765Z,32.91
2022-08-23T12:35:51.085Z,33.06
2022-08-23T12:40:56.716Z,32.15
2022-08-23T12:46:02.328Z,32.33
2022-08-23T12:51:09.365Z,33.12
2022-08-23T12:56:15.825Z,34.28
2022-08-23T13:01:24.330Z,36.09
2022-08-23T13:06:35.803Z,36.86
2022-08-23T13:11:41.435Z,36.73
2022-08-23T13:16:46.031Z,36.49
2022-08-23T13:21:52.184Z,36.03
2022-08-23T13:27:11.586Z,35.43
2022-08-23T13:32:27.051Z,34.14
2022-08-23T13:37:31.877Z,33.13
2022-08-23T13:42:36.426Z,33.04
2022-08-23T13:47:47.453Z,32.76
2022-08-23T13:53:13.971Z,32.63
2022-08-23T13:58:15.301Z,32.50
2022-08-23T14:03:19.645Z,32.38
2022-08-23T14:08:22.709Z,32.23
2022-08-23T14:13:28.748Z,31.53
2022-08-23T14:18:33.143Z,30.91
2022-08-23T14:23:36.465Z,30.48
2022-08-23T14:28:43.881Z,30.07
2022-08-23T14:33:50.880Z,29.75
2022-08-23T14:38:53.879Z,29.47
2022-08-23T14:43:58.567Z,29.24
2022-08-23T14:49:02.959Z,29.07
2022-08-23T14:54:06.726Z,28.92
2022-08-23T14:59:09.767Z,28.75
2022-08-23T15:04:18.234Z,28.62
2022-08-23T15:09:21.530Z,28.51
2022-08-23T15:14:24.777Z,28.42
2022-08-23T15:19:29.267Z,28.32
2022-08-23T15:24:33.273Z,28.22
2022-08-23T15:29:36.871Z,28.09
2022-08-23T15:34:45.787Z,27.92
2022-08-23T15:39:49.704Z,27.81
2022-08-23T15:44:52.813Z,27.72
2022-08-23T15:49:58.862Z,27.65
2022-08-23T15:55:01.889Z,27.56
2022-08-23T16:00:05.852Z,27.51
2022-08-23T16:05:11.079Z,27.46
2022-08-23T16:10:15.437Z,27.41
2022-08-23T16:15:18.508Z,27.36
2022-08-23T16:20:22.884Z,27.29
2022-08-23T16:25:25.968Z,27.17
2022-08-23T16:30:30.215Z,27.03
2022-08-23T16:35:34.642Z,26.90
2022-08-23T16:40:37.603Z,26.80
2022-08-23T16:45:40.713Z,26.68
2022-08-23T16:50:46.018Z,26.58
2022-08-23T16:55:49.081Z,26.48
2022-08-23T17:00:52.088Z,26.41
2022-08-23T17:05:56.498Z,26.32
2022-08-23T17:11:03.044Z,26.27
2022-08-23T17:16:06.737Z,26.23
2022-08-23T17:21:11.197Z,26.14
2022-08-23T17:26:14.270Z,26.09
2022-08-23T17:31:17.720Z,26.01
2022-08-23T17:36:28.523Z,25.95
2022-08-23T17:41:35.393Z,25.91
2022-08-23T17:46:39.953Z,25.86
2022-08-23T17:51:44.525Z,25.82
2022-08-23T17:56:50.346Z,25.83
2022-08-23T18:01:53.807Z,25.84
2022-08-23T18:06:58.447Z,25.75
2022-08-23T18:12:01.587Z,25.64
2022-08-23T18:17:04.872Z,25.52
2022-08-23T18:22:09.318Z,25.48
2022-08-23T18:27:29.809Z,25.41
2022-08-23T18:32:33.101Z,25.28
2022-08-23T18:37:37.879Z,25.17
2022-08-23T18:42:41.471Z,25.05
2022-08-23T18:47:44.456Z,25.02
2022-08-23T18:52:48.828Z,25.02
2022-08-23T18:57:51.871Z,24.94
2022-08-23T19:02:54.855Z,24.84
2022-08-23T19:07:59.409Z,24.67
2022-08-23T19:13:02.482Z,24.49
2022-08-23T19:18:05.617Z,24.37
2022-08-23T19:23:09.968Z,24.46
2022-08-23T19:28:13.383Z,24.51
2022-08-23T19:33:16.447Z,24.54
2022-08-23T19:38:20.827Z,24.51
2022-08-23T19:43:24.132Z,24.45
2022-08-23T19:48:27.268Z,24.38
2022-08-23T19:53:31.624Z,24.31
2022-08-23T19:58:35.826Z,24.27
2022-08-23T20:03:38.850Z,24.22
2022-08-23T20:08:43.180Z,24.24
2022-08-23T20:13:46.179Z,24.23
2022-08-23T20:18:49.144Z,24.20
2022-08-23T20:24:03.848Z,24.13
2022-08-23T20:29:07.562Z,24.09
2022-08-23T20:34:10.575Z,24.04
2022-08-23T20:39:20.388Z,23.95
2022-08-23T20:44:26.696Z,23.93
2022-08-23T20:49:29.697Z,23.91
2022-08-23T20:54:34.011Z,23.85
2022-08-23T20:59:40.971Z,23.85
2022-08-23T21:04:46.732Z,23.80
2022-08-23T21:09:52.185Z,23.81
2022-08-23T21:14:56.790Z,23.77
2022-08-23T21:20:00.115Z,23.73
2022-08-23T21:25:04.569Z,23.73
2022-08-23T21:30:09.210Z,23.67
2022-08-23T21:35:13.850Z,23.66
2022-08-23T21:40:18.422Z,23.61
2022-08-23T21:45:21.440Z,23.57
2022-08-23T21:50:28.697Z,23.51
2022-08-23T21:55:36.280Z,23.46
2022-08-23T22:00:41.251Z,23.48
2022-08-23T22:05:44.832Z,23.43
2022-08-23T22:10:57.405Z,23.33
2022-08-23T22:16:01.584Z,23.29
2022-08-23T22:26:08.810Z,23.28
2022-08-23T22:31:14.128Z,23.18
2022-08-23T22:36:19.018Z,23.12
2022-08-23T22:41:25.623Z,23.02
2022-08-23T22:46:30.309Z,22.90
2022-08-23T22:51:34.941Z,22.90
2022-08-23T22:56:41.104Z,22.87
2022-08-23T23:01:45.198Z,22.87
2022-08-23T23:06:50.867Z,22.87
2022-08-23T23:11:55.225Z,22.82
2022-08-23T23:16:58.301Z,22.90
2022-08-23T23:22:01.469Z,22.92
2022-08-23T23:27:06.649Z,22.93
2022-08-23T23:38:45.044Z,22.84
2022-08-23T23:43:49.743Z,22.85
2022-08-23T23:48:53.013Z,22.79
2022-08-23T23:53:56.621Z,22.72
2022-08-23T23:59:01.032Z,22.75
